Time;durP1;ratioP1;P1;durP2;ratioP2;P2;SDS_P1;SDS_P2;PMS_P1;PMS_P2;Temp;Humidity;BMP_temperature;BMP_pressure;BME280_temperature;BME280_humidity;BME280_pressure;Samples;Min_cycle;Max_cycle;Signal;HPM_P1;HPM_P2
2021/08/23 00:01:30;;;;;;;12.18;7.47;;;;;;;15.61;77.22;100986.69;1790693;78;21225;-81
2021/08/23 00:03:56;;;;;;;7.22;6.62;;;;;;;15.66;77.31;100987.84;1807901;78;21257;-81
2021/08/23 00:06:23;;;;;;;7.33;6.62;;;;;;;15.69;77.31;100985.14;1798705;79;21113;-81
2021/08/23 00:08:49;;;;;;;9.58;7.12;;;;;;;15.71;77.29;100986.80;1786881;78;21096;-81
2021/08/23 00:11:16;;;;;;;7.10;6.47;;;;;;;15.71;77.41;100985.95;1768746;79;21693;-81
2021/08/23 00:13:43;;;;;;;7.45;6.20;;;;;;;15.73;77.34;100990.22;1797845;78;21259;-81
2021/08/23 00:16:09;;;;;;;10.20;6.72;;;;;;;15.71;77.48;100988.56;1795229;78;21300;-81
2021/08/23 00:18:36;;;;;;;7.95;6.78;;;;;;;15.73;77.57;100985.45;1783009;79;21099;-81
2021/08/23 00:21:03;;;;;;;7.47;6.58;;;;;;;15.75;77.57;100988.42;1798788;79;21518;-81
2021/08/23 00:23:36;;;;;;;7.37;6.33;;;;;;;15.77;77.48;100982.70;1763742;79;21047;-81
2021/08/23 00:25:58;;;;;;;7.00;6.25;;;;;;;15.78;77.49;100984.41;1788791;79;21287;-81
2021/08/23 00:28:24;;;;;;;7.12;5.95;;;;;;;15.81;77.82;100987.38;1796560;78;21053;-81
2021/08/23 00:30:54;;;;;;;7.55;6.80;;;;;;;15.81;77.58;100982.16;1797475;79;21013;-81
2021/08/23 00:33:20;;;;;;;7.20;6.10;;;;;;;15.79;77.67;100982.66;1805104;78;21104;-81
2021/08/23 00:35:47;;;;;;;7.70;6.25;;;;;;;15.77;77.63;100984.46;1806534;78;21017;-81
2021/08/23 00:38:13;;;;;;;7.12;6.45;;;;;;;15.76;77.88;100981.00;1789496;79;21036;-81
2021/08/23 00:40:39;;;;;;;6.80;6.30;;;;;;;15.79;77.83;100982.66;1796145;79;21607;-81
2021/08/23 00:43:06;;;;;;;6.58;5.97;;;;;;;15.78;77.98;100980.50;1793169;78;20970;-81
2021/08/23 00:45:32;;;;;;;;;;;;;;;15.82;78.15;100983.41;1801544;79;21041;-81
2021/08/23 00:48:01;;;;;;;7.35;5.85;;;;;;;15.87;78.71;100985.42;1789797;79;20756;-81
2021/08/23 00:50:27;;;;;;;7.15;6.15;;;;;;;15.83;78.00;100987.73;1793981;78;21017;-81
2021/08/23 00:52:54;;;;;;;7.22;6.40;;;;;;;15.81;77.99;100993.44;1781512;79;21101;-81
2021/08/23 00:55:20;;;;;;;7.50;6.80;;;;;;;15.81;78.01;100996.05;1784693;79;21398;-81
2021/08/23 00:57:47;;;;;;;6.62;6.10;;;;;;;15.79;78.09;100999.16;1792768;78;21107;-81
2021/08/23 01:00:14;;;;;;;8.08;6.65;;;;;;;15.79;78.15;100999.16;1761178;80;21044;-81
2021/08/23 01:02:52;;;;;;;7.97;7.05;;;;;;;15.80;78.19;100991.73;1742463;79;21067;-81
2021/08/23 01:05:32;;;;;;;11.60;7.33;;;;;;;15.80;78.19;100992.19;1749009;79;21038;-81
2021/08/23 01:08:10;;;;;;;7.92;7.17;;;;;;;15.77;78.17;100998.80;1738740;81;21046;-81
2021/08/23 01:10:48;;;;;;;8.50;6.92;;;;;;;15.73;78.13;100994.58;1792606;78;20950;-81
2021/08/23 01:13:14;;;;;;;8.68;7.78;;;;;;;15.67;78.06;100995.63;1785610;79;20922;-81
2021/08/23 01:15:42;;;;;;;8.10;6.92;;;;;;;15.63;78.11;100991.86;1802282;79;21000;-81
2021/08/23 01:18:09;;;;;;;7.85;7.05;;;;;;;15.57;78.19;100990.77;1796450;78;21029;-81
2021/08/23 01:20:39;;;;;;;8.20;6.95;;;;;;;15.56;78.32;100996.40;1797845;78;21096;-81
2021/08/23 01:23:08;;;;;;;7.08;6.47;;;;;;;15.53;78.44;100994.73;1802769;78;20942;-81
2021/08/23 01:25:36;;;;;;;8.40;6.90;;;;;;;15.56;78.53;101000.31;1802079;79;20902;-81
2021/08/23 01:28:30;;;;;;;8.55;7.70;;;;;;;15.58;78.44;101003.75;1795511;78;20898;-81
2021/08/23 01:31:42;;;;;;;7.83;6.62;;;;;;;15.52;78.41;100999.55;1798317;78;20942;-81
2021/08/23 01:34:12;;;;;;;7.55;6.12;;;;;;;15.52;78.63;100998.70;1778738;79;20933;-81
2021/08/23 01:36:39;;;;;;;7.28;6.33;;;;;;;15.50;78.46;100987.46;1792056;78;20942;-81
2021/08/23 01:39:06;;;;;;;6.95;6.40;;;;;;;15.47;78.62;100984.95;1790594;79;26368;-81
2021/08/23 01:41:34;;;;;;;9.53;6.22;;;;;;;15.45;78.59;100991.95;1775405;79;412124;-81
2021/08/23 01:44:00;;;;;;;12.10;6.30;;;;;;;15.39;78.60;100992.99;1703621;83;20968;-81
2021/08/23 01:46:31;;;;;;;10.13;6.65;;;;;;;15.42;78.78;100994.20;1712559;83;20924;-81
2021/08/23 01:48:59;;;;;;;7.53;6.47;;;;;;;15.40;78.69;100989.48;1714503;82;20916;-81
2021/08/23 01:51:26;;;;;;;9.53;6.42;;;;;;;15.41;78.85;100990.34;1714345;82;20915;-81
2021/08/23 01:53:53;;;;;;;8.98;6.00;;;;;;;15.42;78.88;101004.62;1708351;83;20923;-81
2021/08/23 01:56:20;;;;;;;7.37;6.67;;;;;;;15.41;78.92;100994.25;1699251;83;20900;-81
2021/08/23 01:58:46;;;;;;;7.20;6.40;;;;;;;15.46;79.12;100992.36;1718858;83;20909;-81
2021/08/23 02:01:13;;;;;;;7.33;6.42;;;;;;;15.51;79.15;100995.69;1723093;82;20876;-81
2021/08/23 02:03:39;;;;;;;7.05;6.08;;;;;;;15.53;79.12;100988.67;1706940;83;20912;-81
2021/08/23 02:06:06;;;;;;;7.35;5.87;;;;;;;15.52;79.01;100986.52;1720012;83;20961;-81
2021/08/23 02:08:32;;;;;;;7.55;6.03;;;;;;;15.46;78.89;100972.37;1705994;83;20896;-81
2021/08/23 02:11:00;;;;;;;7.85;5.97;;;;;;;15.43;78.96;100965.09;1701435;83;20923;-81
2021/08/23 02:13:26;;;;;;;9.13;6.62;;;;;;;15.39;78.93;100963.48;1722240;82;20923;-81
2021/08/23 02:15:54;;;;;;;6.97;6.28;;;;;;;15.38;79.03;100970.89;1712398;82;20907;-81
2021/08/23 02:18:29;;;;;;;8.45;6.20;;;;;;;15.39;79.04;100968.69;1707365;83;21038;-81
2021/08/23 02:20:55;;;;;;;7.08;6.37;;;;;;;15.42;79.21;100977.27;1716209;82;20998;-81
2021/08/23 02:23:22;;;;;;;9.85;5.87;;;;;;;15.44;79.27;100969.41;1710350;83;21058;-81
2021/08/23 02:26:00;;;;;;;6.85;6.25;;;;;;;15.44;79.21;100965.49;1699612;83;21058;-81
2021/08/23 02:28:26;;;;;;;8.53;5.90;;;;;;;15.43;79.13;100958.13;1720353;83;21039;-81
2021/08/23 02:30:53;;;;;;;6.47;5.87;;;;;;;15.41;79.09;100965.59;1722145;82;21573;-81
2021/08/23 02:33:28;;;;;;;7.78;5.72;;;;;;;15.40;79.22;100973.00;1714002;81;21038;-81
2021/08/23 02:35:54;;;;;;;6.53;5.95;;;;;;;15.41;79.33;100983.83;1712051;82;21614;-81
2021/08/23 02:38:21;;;;;;;7.17;5.60;;;;;;;15.43;79.38;100984.63;1703385;82;21129;-81
2021/08/23 02:40:47;;;;;;;6.80;5.78;;;;;;;15.46;79.35;100988.45;1704287;83;21105;-81
2021/08/23 02:43:13;;;;;;;6.70;5.97;;;;;;;15.40;79.12;100992.55;1715615;82;21106;-81
2021/08/23 02:45:40;;;;;;;6.95;6.17;;;;;;;15.37;79.25;100989.58;1698861;82;21097;-81
2021/08/23 02:48:06;;;;;;;7.80;7.10;;;;;;;15.35;79.28;100989.22;1690483;83;21064;-81
2021/08/23 02:50:33;;;;;;;7.58;6.70;;;;;;;15.35;79.35;100986.61;1712414;82;21067;-81
2021/08/23 02:52:59;;;;;;;;;;;;;;;15.36;79.47;100986.57;1695051;83;21060;-81
2021/08/23 02:55:26;;;;;;;6.97;6.28;;;;;;;15.32;79.64;100981.05;1686317;83;20801;-81
2021/08/23 02:57:52;;;;;;;7.95;7.15;;;;;;;15.31;79.38;100985.85;1709280;83;20925;-81
2021/08/23 03:00:20;;;;;;;11.97;7.60;;;;;;;15.31;79.34;100985.85;1702964;83;21075;-81
2021/08/23 03:02:47;;;;;;;8.23;7.45;;;;;;;15.27;79.03;100979.02;1691751;83;20953;-81
2021/08/23 03:05:13;;;;;;;9.00;8.10;;;;;;;15.24;79.29;100976.51;1707614;83;21084;-81
2021/08/23 03:07:43;;;;;;;9.10;6.97;;;;;;;15.22;79.26;100975.70;1685942;83;21064;-81
2021/08/23 03:10:10;;;;;;;9.83;8.10;;;;;;;15.21;79.09;100970.94;1700963;83;21045;-81
2021/08/23 03:12:36;;;;;;;8.43;7.62;;;;;;;15.18;79.30;100973.63;1704024;83;21055;-81
2021/08/23 03:15:10;;;;;;;9.23;7.22;;;;;;;15.21;79.34;100975.30;1700792;83;21036;-81
2021/08/23 03:17:36;;;;;;;;;;;;;;;15.24;79.29;100980.41;1702828;82;20960;-81
2021/08/23 03:20:04;;;;;;;7.85;7.20;;;;;;;15.22;79.60;100977.00;1691907;83;20190;-82
2021/08/23 03:22:32;;;;;;;10.93;6.53;;;;;;;15.20;79.32;100974.89;1700837;83;21024;-82
2021/08/23 03:24:58;;;;;;;9.95;7.62;;;;;;;15.22;79.27;100973.95;1694456;83;21580;-82
2021/08/23 03:27:25;;;;;;;9.33;7.00;;;;;;;15.18;79.18;100974.94;1710320;83;21056;-82
2021/08/23 03:29:53;;;;;;;7.42;6.45;;;;;;;15.16;79.14;100981.94;1696178;83;21040;-82
2021/08/23 03:32:20;;;;;;;8.68;7.80;;;;;;;15.16;79.22;100988.45;1689049;82;21088;-82
2021/08/23 03:34:46;;;;;;;8.23;7.22;;;;;;;15.15;79.21;100993.70;1713353;82;20905;-82
2021/08/23 03:37:19;;;;;;;7.50;6.60;;;;;;;15.17;79.35;100997.13;1688239;83;20941;-82
2021/08/23 03:39:45;;;;;;;9.85;6.95;;;;;;;15.18;79.05;100992.31;1695083;83;21461;-82
2021/08/23 03:42:12;;;;;;;7.08;6.25;;;;;;;15.16;79.12;100982.39;1714587;83;20906;-82
2021/08/23 03:44:41;;;;;;;13.60;6.95;;;;;;;15.16;79.31;100972.82;1698179;83;20913;-82
2021/08/23 03:47:07;;;;;;;8.85;6.75;;;;;;;15.18;79.21;100980.59;1664694;84;20924;-82
2021/08/23 03:49:33;;;;;;;7.65;6.80;;;;;;;15.15;79.22;100981.53;1703789;83;20877;-82
2021/08/23 03:52:00;;;;;;;6.58;5.97;;;;;;;15.17;79.23;100990.16;1708795;83;20944;-82
2021/08/23 03:54:26;;;;;;;10.40;6.30;;;;;;;15.15;79.18;100986.74;1695004;83;20913;-82
2021/08/23 03:56:52;;;;;;;7.75;6.95;;;;;;;15.15;79.22;100988.50;1692566;82;20945;-82
2021/08/23 03:59:18;;;;;;;6.83;6.17;;;;;;;15.16;79.22;100985.84;1705298;83;20905;-82
2021/08/23 04:01:46;;;;;;;7.20;6.42;;;;;;;15.18;79.33;100989.71;1696376;83;20909;-82
2021/08/23 04:04:12;;;;;;;6.50;6.00;;;;;;;15.19;79.26;100981.85;1697131;82;21489;-81
2021/08/23 04:06:44;;;;;;;7.12;6.42;;;;;;;15.18;79.26;100972.78;1686721;83;21124;-81
2021/08/23 04:09:13;;;;;;;8.35;5.95;;;;;;;15.18;79.36;100964.52;1693117;82;21067;-81
2021/08/23 04:11:40;;;;;;;7.08;5.92;;;;;;;15.22;79.30;100971.79;1706590;83;21026;-82
2021/08/23 04:14:07;;;;;;;;;;;;;;;15.21;79.23;100977.90;1698481;83;20989;-82
2021/08/23 04:16:33;;;;;;;7.15;4.95;;;;;;;15.19;79.61;100981.00;1697289;83;20230;-82
2021/08/23 04:18:59;;;;;;;7.28;6.42;;;;;;;15.17;79.14;100980.19;1687798;83;21072;-82
2021/08/23 04:21:26;;;;;;;6.50;5.90;;;;;;;15.15;79.30;100980.68;1702733;83;21064;-82
2021/08/23 04:23:52;;;;;;;7.17;6.47;;;;;;;15.14;79.21;100977.22;1691674;83;21104;-82
2021/08/23 04:26:18;;;;;;;8.75;6.25;;;;;;;15.14;79.39;100985.48;1696901;83;21048;-82
2021/08/23 04:28:46;;;;;;;7.97;6.47;;;;;;;15.15;79.36;101002.38;1703756;83;21099;-82
2021/08/23 04:31:12;;;;;;;10.03;6.62;;;;;;;15.16;79.46;101015.80;1686537;83;21547;-82
2021/08/23 04:33:40;;;;;;;7.50;6.35;;;;;;;15.17;79.35;101012.75;1697748;83;21012;-82
2021/08/23 04:36:06;;;;;;;8.85;6.80;;;;;;;15.16;79.35;101013.65;1711677;83;21056;-82
2021/08/23 04:38:33;;;;;;;7.33;6.53;;;;;;;15.17;79.39;101012.75;1713726;83;20976;-82
2021/08/23 04:40:59;;;;;;;9.28;6.80;;;;;;;15.20;79.51;101008.75;1691483;83;21084;-82
2021/08/23 04:43:25;;;;;;;7.55;6.30;;;;;;;15.23;79.58;101012.58;1701677;83;21086;-82
2021/08/23 04:45:52;;;;;;;7.25;6.40;;;;;;;15.23;79.51;101006.06;1690639;83;20981;-82
2021/08/23 04:48:18;;;;;;;6.03;5.35;;;;;;;15.24;79.53;101002.56;1695231;84;21036;-82
2021/08/23 04:50:45;;;;;;;6.72;6.22;;;;;;;15.24;79.48;101001.25;1682752;83;21044;-82
2021/08/23 04:53:11;;;;;;;7.60;6.22;;;;;;;15.15;79.42;100989.80;1674411;84;21516;-82
2021/08/23 04:55:37;;;;;;;9.65;6.42;;;;;;;15.21;79.41;101007.86;1687059;84;21045;-82
2021/08/23 04:58:04;;;;;;;6.67;6.05;;;;;;;15.21;79.50;101007.86;1688911;84;20981;-82
2021/08/23 05:00:30;;;;;;;9.95;5.85;;;;;;;15.21;79.41;101001.34;1680690;83;21076;-82
2021/08/23 05:02:56;;;;;;;7.30;6.08;;;;;;;15.17;79.43;101001.88;1677921;84;21085;-82
2021/08/23 05:05:23;;;;;;;6.42;5.10;;;;;;;15.17;79.45;101009.70;1641970;86;21625;-82
2021/08/23 05:07:49;;;;;;;10.13;6.37;;;;;;;15.16;79.50;101004.08;1684474;84;21028;-82
2021/08/23 05:10:16;;;;;;;6.65;5.97;;;;;;;15.17;79.48;101011.45;1690279;84;21640;-82
2021/08/23 05:12:42;;;;;;;8.10;5.55;;;;;;;15.16;79.50;101014.50;1686680;83;21524;-82
2021/08/23 05:15:09;;;;;;;5.75;5.25;;;;;;;15.15;79.57;101015.84;1680884;83;21095;-82
2021/08/23 05:17:35;;;;;;;;;;;;;;;15.11;79.46;101007.72;1693425;84;20949;-82
2021/08/23 05:20:04;;;;;;;6.53;5.35;;;;;;;15.05;80.75;101009.22;1674048;84;20163;-82
2021/08/23 05:22:30;;;;;;;6.00;5.40;;;;;;;15.03;81.05;101008.41;1676445;84;21608;-82
2021/08/23 05:24:56;;;;;;;7.42;5.90;;;;;;;14.95;81.79;101010.37;1616768;87;21015;-81
2021/08/23 05:27:27;;;;;;;6.90;5.53;;;;;;;14.87;81.47;101012.73;1679859;83;22074;-81
2021/08/23 05:29:53;;;;;;;6.87;6.15;;;;;;;14.82;81.37;101016.36;1683784;83;21008;-81
2021/08/23 05:32:19;;;;;;;7.53;5.90;;;;;;;14.81;81.04;101018.55;1634730;86;22217;-81
2021/08/23 05:34:47;;;;;;;6.33;5.47;;;;;;;14.73;82.19;101019.20;1683155;83;20993;-81
2021/08/23 05:37:14;;;;;;;7.67;5.15;;;;;;;14.69;81.28;101018.43;1679275;84;22116;-80
2021/08/23 05:39:41;;;;;;;7.37;6.22;;;;;;;14.68;81.10;101010.66;1682331;84;21052;-81
2021/08/23 05:42:07;;;;;;;8.25;5.37;;;;;;;14.67;81.11;101019.36;1690183;84;21422;-81
2021/08/23 05:44:35;;;;;;;17.57;5.80;;;;;;;14.65;81.24;101015.95;1682409;84;21471;-81
2021/08/23 05:47:01;;;;;;;6.55;5.95;;;;;;;14.66;81.93;101018.95;1678842;84;21044;-81
2021/08/23 05:49:28;;;;;;;8.83;7.10;;;;;;;14.66;81.42;101021.56;1690946;84;21592;-81
2021/08/23 05:51:54;;;;;;;8.90;6.40;;;;;;;14.68;81.45;101034.09;1682950;84;21537;-81
2021/08/23 05:54:20;;;;;;;9.90;5.67;;;;;;;14.67;81.32;101027.17;1683369;83;21013;-81
2021/08/23 05:56:48;;;;;;;7.60;6.87;;;;;;;14.64;81.21;101029.41;1687760;83;21588;-81
2021/08/23 05:59:14;;;;;;;8.95;6.25;;;;;;;14.61;81.52;101032.54;1681008;84;21056;-81
2021/08/23 06:01:40;;;;;;;7.20;6.55;;;;;;;14.62;81.48;101036.41;1682037;82;21076;-81
2021/08/23 06:04:23;;;;;;;6.62;5.95;;;;;;;14.62;81.71;101036.85;1685008;83;21096;-81
2021/08/23 06:06:51;;;;;;;8.25;6.78;;;;;;;14.60;81.66;101041.23;1678460;84;21637;-81
2021/08/23 06:09:21;;;;;;;7.22;6.62;;;;;;;14.59;81.60;101041.69;1688205;84;21048;-82
2021/08/23 06:11:48;;;;;;;7.65;6.95;;;;;;;14.60;81.44;101039.94;1678299;83;21033;-81
2021/08/23 06:14:15;;;;;;;7.92;6.40;;;;;;;14.56;82.08;101041.31;1689509;83;21200;-81
2021/08/23 06:16:41;;;;;;;7.37;6.67;;;;;;;14.58;82.31;101043.87;1685397;84;21485;-81
2021/08/23 06:19:07;;;;;;;6.92;6.20;;;;;;;14.57;82.33;101044.78;1684976;83;21112;-82
2021/08/23 06:21:34;;;;;;;6.45;5.78;;;;;;;14.58;82.17;101047.34;1693185;83;21481;-79
2021/08/23 06:24:01;;;;;;;6.20;5.60;;;;;;;14.58;82.28;101051.69;1693711;82;20878;-79
2021/08/23 06:26:27;;;;;;;10.48;5.85;;;;;;;14.55;82.13;101049.20;1691224;83;20949;-79
2021/08/23 06:28:55;;;;;;;6.85;5.80;;;;;;;14.53;81.94;101044.48;1685050;82;21517;-79
2021/08/23 06:31:23;;;;;;;8.18;6.47;;;;;;;14.49;82.18;101049.35;1649235;85;21441;-79
2021/08/23 06:33:50;;;;;;;7.08;5.15;;;;;;;14.47;82.69;101048.53;1651648;86;21958;-78
2021/08/23 06:36:23;;;;;;;7.08;5.15;;;;;;;14.45;82.36;101055.52;1641656;85;21379;-78
2021/08/23 06:38:49;;;;;;;6.72;5.47;;;;;;;14.39;82.44;101051.73;1691528;84;20925;-78
2021/08/23 06:43:44;;;;;;;9.30;5.42;;;;;;;14.34;82.61;101052.30;1810358;78;22674;-79
2021/08/23 06:46:16;;;;;;;5.65;4.95;;;;;;;14.28;82.39;101056.34;1758530;79;21468;-79
2021/08/23 06:48:44;;;;;;;5.28;4.67;;;;;;;14.24;82.56;101060.77;1760399;79;21470;-79
2021/08/23 06:51:10;;;;;;;;;;;;;;;14.19;82.46;101060.87;1756321;80;21527;-79
2021/08/23 06:53:36;;;;;;;5.37;4.87;;;;;;;14.19;82.77;101058.72;1761722;79;20176;-79
2021/08/23 06:56:03;;;;;;;6.08;5.25;;;;;;;14.16;82.61;101062.25;1737706;80;20938;-79
2021/08/23 06:58:31;;;;;;;5.78;5.28;;;;;;;14.18;82.50;101064.81;1760328;79;21658;-79
2021/08/23 07:00:58;;;;;;;8.18;6.15;;;;;;;14.15;82.64;101061.84;1752485;79;20988;-79
2021/08/23 07:03:24;;;;;;;5.28;4.80;;;;;;;14.17;82.71;101063.95;1746953;79;21576;-79
2021/08/23 07:05:50;;;;;;;5.78;4.95;;;;;;;14.14;82.35;101065.33;1748892;81;21007;-79
2021/08/23 07:08:17;;;;;;;5.67;4.92;;;;;;;14.11;82.71;101064.55;1752729;79;21562;-79
2021/08/23 07:10:47;;;;;;;5.42;4.78;;;;;;;14.08;82.55;101064.17;1753672;79;21090;-79
2021/08/23 07:13:13;;;;;;;8.08;5.37;;;;;;;14.06;82.93;101071.59;1747181;79;21041;-79
2021/08/23 07:15:39;;;;;;;6.50;5.50;;;;;;;14.09;83.06;101072.38;1766783;79;21600;-79
2021/08/23 07:18:07;;;;;;;7.95;5.40;;;;;;;14.10;83.17;101070.63;1747560;79;20978;-79
2021/08/23 07:20:36;;;;;;;6.17;5.53;;;;;;;14.12;83.04;101081.86;1761817;79;21044;-79
2021/08/23 07:23:02;;;;;;;6.87;5.45;;;;;;;14.13;82.97;101080.97;1742157;79;21534;-79
2021/08/23 07:25:29;;;;;;;6.78;5.20;;;;;;;14.16;83.11;101080.45;1753077;79;21105;-79
2021/08/23 07:27:55;;;;;;;7.85;4.78;;;;;;;14.21;83.12;101079.90;1752138;79;21099;-79
2021/08/23 07:30:28;;;;;;;4.85;4.45;;;;;;;14.21;82.96;101084.25;1747692;79;21529;-79
2021/08/23 07:32:55;;;;;;;9.58;4.20;;;;;;;14.17;82.67;101090.41;1753169;79;21673;-79
2021/08/23 07:35:21;;;;;;;5.22;4.72;;;;;;;14.15;83.00;101090.89;1744978;79;21546;-79
2021/08/23 07:37:49;;;;;;;7.97;5.53;;;;;;;14.18;83.03;101083.02;1751709;79;21033;-79
2021/08/23 07:40:17;;;;;;;5.67;4.55;;;;;;;14.17;83.13;101087.81;1761344;79;20937;-79
2021/08/23 07:42:44;;;;;;;7.20;4.65;;;;;;;14.21;83.15;101089.00;1758221;79;20914;-85
2021/08/23 07:45:13;;;;;;;6.40;5.58;;;;;;;14.23;83.22;101091.57;1762511;79;21405;-83
2021/08/23 07:47:41;;;;;;;6.53;5.45;;;;;;;14.28;83.09;101102.72;1750049;79;20942;-85
2021/08/23 07:50:08;;;;;;;8.73;4.97;;;;;;;14.29;83.14;101097.08;1741418;79;21430;-87
2021/08/23 07:52:35;;;;;;;4.97;4.53;;;;;;;14.31;83.22;101097.89;1765371;79;21498;-86
2021/08/23 07:55:01;;;;;;;6.00;5.10;;;;;;;14.29;83.13;101090.57;1695896;82;21463;-86
2021/08/23 07:57:27;;;;;;;13.35;5.00;;;;;;;14.30;83.29;101100.94;1695806;82;20957;-86
2021/08/23 07:59:54;;;;;;;6.40;5.25;;;;;;;14.29;83.24;101103.13;1686922;83;21471;-86
2021/08/23 08:02:32;;;;;;;4.83;3.95;;;;;;;14.33;83.37;101106.52;1690525;83;20889;-86
2021/08/23 08:04:59;;;;;;;8.60;4.58;;;;;;;14.31;83.14;101104.40;1681801;82;21367;-85
2021/08/23 08:07:25;;;;;;;7.97;4.78;;;;;;;14.34;83.46;101110.83;1681262;83;20883;-86
2021/08/23 08:09:51;;;;;;;5.60;5.00;;;;;;;14.35;83.46;101112.09;1690409;83;20961;-86
2021/08/23 08:12:18;;;;;;;7.17;4.17;;;;;;;14.33;83.24;101106.52;1692831;83;21001;-86
2021/08/23 08:14:45;;;;;;;7.08;4.25;;;;;;;14.32;83.31;101111.31;1687717;82;20970;-86
2021/08/23 08:17:11;;;;;;;5.78;4.55;;;;;;;14.28;83.19;101113.58;1684555;84;20950;-86
2021/08/23 08:19:38;;;;;;;5.22;4.10;;;;;;;14.29;83.43;101120.48;1687264;83;21073;-86
2021/08/23 08:22:05;;;;;;;4.78;3.95;;;;;;;14.29;83.48;101121.78;1762242;79;21029;-86
2021/08/23 08:24:37;;;;;;;9.53;4.25;;;;;;;14.28;83.48;101123.53;1761920;79;21041;-86
2021/08/23 08:27:04;;;;;;;8.15;4.12;;;;;;;14.30;83.58;101121.75;1707988;82;21062;-86
2021/08/23 08:29:31;;;;;;;5.17;4.22;;;;;;;14.32;83.57;101119.97;1690943;82;21054;-86
2021/08/23 08:31:58;;;;;;;4.78;4.30;;;;;;;14.34;83.62;101116.89;1692765;82;21057;-86
2021/08/23 08:34:24;;;;;;;5.10;3.83;;;;;;;14.32;83.45;101126.92;1765167;79;21112;-86
2021/08/23 08:36:50;;;;;;;3.85;3.55;;;;;;;14.30;83.54;101128.26;1772725;79;21327;-86
2021/08/23 08:39:17;;;;;;;5.45;4.08;;;;;;;14.30;83.66;101124.80;1759283;79;21049;-86
2021/08/23 08:41:45;;;;;;;7.47;4.33;;;;;;;14.29;83.95;101126.55;1753332;79;21108;-86
2021/08/23 08:44:11;;;;;;;6.65;3.83;;;;;;;14.30;84.03;101128.70;1756476;79;21141;-86
2021/08/23 08:46:39;;;;;;;3.42;3.12;;;;;;;14.25;83.82;101131.41;1731485;80;21068;-86
2021/08/23 08:49:05;;;;;;;8.03;2.98;;;;;;;14.19;83.73;101133.70;1755205;79;21061;-85
2021/08/23 08:51:36;;;;;;;5.47;3.62;;;;;;;14.14;83.66;101134.25;1755606;79;21136;-85
2021/08/23 08:54:01;;;;;;;5.47;3.22;;;;;;;14.11;83.75;101140.81;1763494;79;20914;-85
2021/08/23 08:56:31;;;;;;;7.97;3.60;;;;;;;14.04;83.57;101128.84;1756619;79;20954;-85
2021/08/23 08:58:57;;;;;;;5.35;3.30;;;;;;;14.01;83.65;101126.34;1757876;79;20961;-85
2021/08/23 09:01:24;;;;;;;3.42;3.00;;;;;;;13.97;83.68;101132.49;1745171;79;20915;-85
2021/08/23 09:03:50;;;;;;;5.85;2.90;;;;;;;13.93;83.63;101137.34;1754379;79;20961;-85
2021/08/23 09:06:16;;;;;;;4.83;3.30;;;;;;;13.87;83.66;101138.77;1688314;82;20927;-86
2021/08/23 09:08:46;;;;;;;5.67;3.12;;;;;;;13.81;83.58;101146.26;1735964;79;20892;-86
2021/08/23 09:11:18;;;;;;;4.25;3.45;;;;;;;13.76;83.76;101140.30;1736512;79;21096;-86
2021/08/23 09:14:03;;;;;;;4.17;3.12;;;;;;;13.80;84.04;101147.59;1726757;80;21135;-86
2021/08/23 09:16:36;;;;;;;5.37;3.52;;;;;;;13.82;83.98;101149.71;1753896;79;20997;-86
2021/08/23 09:19:03;;;;;;;9.35;5.17;;;;;;;13.83;84.05;101160.08;1764098;79;21024;-86
2021/08/23 09:21:36;;;;;;;9.50;4.65;;;;;;;13.83;84.04;101156.18;1754685;79;21001;-86
2021/08/23 09:24:09;;;;;;;3.95;3.55;;;;;;;13.83;83.97;101161.83;1760308;79;21076;-86
2021/08/23 09:26:35;;;;;;;5.03;3.20;;;;;;;13.82;83.98;101165.31;1754698;79;21049;-86
2021/08/23 09:29:05;;;;;;;4.25;3.35;;;;;;;13.81;84.21;101167.05;1753999;79;21069;-86
2021/08/23 09:31:35;;;;;;;4.30;3.00;;;;;;;13.84;84.09;101163.09;1769969;79;21030;-86
2021/08/23 09:34:05;;;;;;;3.85;3.05;;;;;;;13.82;84.03;101171.80;1692295;82;20978;-86
2021/08/23 09:36:32;;;;;;;3.33;3.02;;;;;;;13.83;84.24;101165.72;1758719;79;21056;-86
2021/08/23 09:39:07;;;;;;;4.08;3.08;;;;;;;13.84;84.12;101168.29;1750258;79;21061;-86
2021/08/23 09:41:40;;;;;;;4.65;2.90;;;;;;;13.81;84.12;101162.30;1752239;79;21093;-86
2021/08/23 09:44:13;;;;;;;3.30;2.90;;;;;;;13.81;84.18;101160.55;1744788;79;21100;-86
2021/08/23 09:46:43;;;;;;;2.90;2.55;;;;;;;13.81;84.27;101170.95;1753776;79;21076;-86
2021/08/23 09:49:12;;;;;;;4.08;3.00;;;;;;;13.80;84.26;101167.08;1770683;79;20978;-86
2021/08/23 09:51:44;;;;;;;2.92;2.60;;;;;;;13.82;84.27;101170.06;1758543;79;20915;-86
2021/08/23 09:54:14;;;;;;;4.25;2.55;;;;;;;13.85;84.33;101166.55;1734459;79;21037;-86
2021/08/23 09:56:46;;;;;;;3.15;2.85;;;;;;;13.85;84.14;101179.09;1751179;79;20890;-86
2021/08/23 09:59:17;;;;;;;4.17;2.80;;;;;;;13.81;84.27;101178.75;1755719;79;20898;-86
2021/08/23 10:01:49;;;;;;;3.77;2.70;;;;;;;13.81;84.32;101178.75;1752195;79;20870;-86
2021/08/23 10:04:17;;;;;;;3.83;3.25;;;;;;;13.81;84.40;101181.79;1765586;79;20930;-86
2021/08/23 10:06:45;;;;;;;4.55;3.08;;;;;;;13.81;84.26;101181.79;1761773;79;20898;-86
2021/08/23 10:09:23;;;;;;;4.62;3.58;;;;;;;13.78;84.33;101177.95;1748752;79;20934;-86
2021/08/23 10:11:52;;;;;;;3.83;2.83;;;;;;;13.76;84.34;101181.03;1737241;81;20980;-86
2021/08/23 10:14:19;;;;;;;3.87;3.30;;;;;;;13.71;84.25;101182.41;1748385;79;21048;-87
2021/08/23 10:16:46;;;;;;;;;;;;;;;13.73;84.52;101182.39;1768875;79;21065;-86
2021/08/23 10:19:12;;;;;;;5.28;2.83;;;;;;;13.74;84.68;101180.20;1775307;79;20203;-86
2021/08/23 10:21:43;;;;;;;4.42;2.55;;;;;;;13.73;84.48;101179.34;1729159;79;21070;-86
2021/08/23 10:24:17;;;;;;;4.08;2.95;;;;;;;13.72;84.46;101175.03;1751635;79;21110;-86
2021/08/23 10:26:46;;;;;;;3.25;2.70;;;;;;;13.74;84.48;101177.60;1755309;79;21049;-86
2021/08/23 10:29:15;;;;;;;3.20;2.67;;;;;;;13.72;84.33;101178.08;1747971;79;21101;-87
2021/08/23 10:31:44;;;;;;;3.05;2.72;;;;;;;13.70;84.51;101175.50;1757246;79;21311;-87
2021/08/23 10:34:21;;;;;;;4.22;3.02;;;;;;;13.70;84.58;101182.00;1736317;79;194357;-86
2021/08/23 10:36:50;;;;;;;3.75;2.92;;;;;;;13.72;84.57;101180.23;1672979;84;20920;-86
2021/08/23 10:39:23;;;;;;;7.25;3.08;;;;;;;13.68;84.47;101191.57;1654160;84;20934;-86
2021/08/23 10:41:51;;;;;;;6.53;2.75;;;;;;;13.68;84.45;101190.27;1665198;84;20934;-86
2021/08/23 10:44:32;;;;;;;6.08;3.02;;;;;;;13.65;84.59;101185.13;1649136;84;20875;-86
2021/08/23 10:47:10;;;;;;;8.43;2.70;;;;;;;13.68;84.74;101192.02;1623347;86;20942;-86
2021/08/23 10:49:43;;;;;;;5.75;3.10;;;;;;;13.69;84.67;101189.83;1616594;86;20997;-87
2021/08/23 10:52:12;;;;;;;3.00;2.65;;;;;;;13.65;84.60;101191.63;1587048;87;20965;-87
2021/08/23 10:54:42;;;;;;;8.13;2.70;;;;;;;13.65;84.68;101194.67;1610569;86;20916;-87
2021/08/23 10:57:11;;;;;;;3.65;3.08;;;;;;;13.67;84.59;101195.50;1607341;86;20997;-87
2021/08/23 10:59:49;;;;;;;3.83;2.95;;;;;;;13.63;84.84;101199.05;1644943;85;20970;-87
2021/08/23 11:02:32;;;;;;;2.90;2.58;;;;;;;13.63;84.68;101203.80;1650085;85;20950;-88
2021/08/23 11:05:39;;;;;;;6.28;2.80;;;;;;;13.61;84.69;101193.88;1649945;85;20930;-88
2021/08/23 11:08:09;;;;;;;4.33;2.95;;;;;;;13.59;84.82;101202.14;1652927;83;20974;-85
2021/08/23 11:10:39;;;;;;;4.72;2.90;;;;;;;13.58;84.83;101196.53;1642441;85;20915;-88
2021/08/23 11:13:19;;;;;;;3.58;3.17;;;;;;;13.58;84.88;101193.49;1648486;85;21327;-84
2021/08/23 11:15:46;;;;;;;4.65;3.12;;;;;;;13.60;84.81;101190.86;1661366;84;21085;-84
2021/08/23 11:18:16;;;;;;;3.47;3.10;;;;;;;13.60;84.81;101198.66;1655980;84;20897;-84
2021/08/23 11:20:49;;;;;;;3.87;3.27;;;;;;;13.53;84.61;101199.22;1650030;84;20945;-84
2021/08/23 11:23:25;;;;;;;5.50;3.05;;;;;;;13.53;84.79;101200.52;1648252;85;20965;-84
2021/08/23 11:25:54;;;;;;;6.50;3.37;;;;;;;13.49;84.72;101201.94;1645641;85;20971;-84
2021/08/23 11:28:29;;;;;;;5.62;3.60;;;;;;;13.49;85.03;101201.94;1649828;84;21002;-84
2021/08/23 11:31:01;;;;;;;;;;;;;;;13.54;85.18;101203.53;1628930;86;21099;-83
2021/08/23 11:33:35;;;;;;;4.72;2.67;;;;;;;13.59;85.45;101203.44;1665409;85;20108;-83
2021/08/23 11:36:26;;;;;;;9.08;3.70;;;;;;;13.62;85.21;101205.98;1656460;85;20934;-83